Time;durP1;ratioP1;P1;durP2;ratioP2;P2;SDS_P1;SDS_P2;PMS_P1;PMS_P2;Temp;Humidity;BMP_temperature;BMP_pressure;BME280_temperature;BME280_humidity;BME280_pressure;Samples;Min_cycle;Max_cycle;Signal;HPM_P1;HPM_P2
2022/12/18 00:02:13;;;;;;;0.10;0.10;;;-3274.90;90.30;;;;;;4951160;29;20055;-65
2022/12/18 00:04:38;;;;;;;0.40;0.40;;;-3275.00;90.30;;;;;;4949696;29;20515;-65
2022/12/18 00:07:04;;;;;;;0.15;0.15;;;-3275.00;90.20;;;;;;4951143;29;20043;-64
2022/12/18 00:09:30;;;;;;;0.10;0.10;;;-3275.00;90.10;;;;;;4951302;29;20043;-65
2022/12/18 00:11:55;;;;;;;0.10;0.10;;;-3275.00;90.10;;;;;;4950942;29;20079;-65
2022/12/18 00:14:21;;;;;;;0.57;0.57;;;-3275.00;89.90;;;;;;4951482;29;20530;-66
2022/12/18 00:16:47;;;;;;;0.10;0.10;;;-3275.00;90.10;;;;;;4950640;29;20047;-65
2022/12/18 00:19:14;;;;;;;1.38;0.75;;;-3274.90;90.00;;;;;;4951323;29;20047;-65
2022/12/18 00:21:41;;;;;;;0.13;0.13;;;-3274.90;90.00;;;;;;4950909;29;20043;-64
2022/12/18 00:24:07;;;;;;;0.10;0.10;;;-3274.90;89.90;;;;;;4949842;28;20058;-65
2022/12/18 00:26:34;;;;;;;0.85;0.85;;;-3274.90;90.10;;;;;;4950757;28;20043;-65
2022/12/18 00:29:02;;;;;;;0.20;0.20;;;-3275.00;90.00;;;;;;4950571;28;20043;-64
2022/12/18 00:31:28;;;;;;;1.50;1.42;;;-3274.90;90.00;;;;;;4949238;28;20075;-65
2022/12/18 00:33:56;;;;;;;0.30;0.30;;;-3274.90;89.90;;;;;;4949780;29;20551;-65
2022/12/18 00:36:28;;;;;;;0.10;0.10;;;-3274.90;90.00;;;;;;4950671;29;20082;-65
2022/12/18 00:38:56;;;;;;;0.38;0.35;;;-3274.90;89.90;;;;;;4951215;29;20043;-65
2022/12/18 00:44:10;;;;;;;0.00;0.00;;;-3274.90;89.80;;;;;;4950220;29;20051;-65
2022/12/18 00:46:35;;;;;;;0.00;0.00;;;-3274.90;89.70;;;;;;4950468;29;20493;-65
2022/12/18 00:49:01;;;;;;;2.92;0.93;;;-3274.90;89.70;;;;;;4950729;29;20036;-65
2022/12/18 00:51:27;;;;;;;0.10;0.10;;;-3274.80;89.70;;;;;;4950934;29;20087;-65
2022/12/18 00:53:53;;;;;;;0.30;0.30;;;-3274.80;89.60;;;;;;4949035;29;20048;-65
2022/12/18 00:56:19;;;;;;;0.03;0.03;;;-3274.80;89.70;;;;;;4950229;29;20050;-65
2022/12/18 00:58:44;;;;;;;0.17;0.17;;;-3274.80;89.70;;;;;;4949560;29;20142;-64
2022/12/18 01:01:10;;;;;;;0.10;0.10;;;-3274.80;89.70;;;;;;4950662;29;20058;-65
2022/12/18 01:03:35;;;;;;;0.10;0.10;;;-3274.70;89.70;;;;;;4950649;29;20571;-65
2022/12/18 01:06:09;;;;;;;0.10;0.10;;;-3274.70;89.70;;;;;;4951005;28;20126;-65
2022/12/18 01:08:35;;;;;;;0.45;0.45;;;-3274.70;89.90;;;;;;4933049;29;20508;-65
2022/12/18 01:11:06;;;;;;;0.10;0.10;;;-3274.80;89.80;;;;;;4950612;28;20043;-65
2022/12/18 01:13:32;;;;;;;0.10;0.10;;;-3274.80;89.80;;;;;;4950781;28;20041;-65
2022/12/18 01:15:57;;;;;;;0.00;0.00;;;-3274.80;89.70;;;;;;4950536;29;20047;-64
2022/12/18 01:18:23;;;;;;;0.38;0.38;;;-3274.70;89.70;;;;;;4950261;29;20051;-65
2022/12/18 01:20:48;;;;;;;0.10;0.10;;;-3274.70;89.50;;;;;;4950031;28;20055;-65
2022/12/18 01:23:14;;;;;;;0.00;0.00;;;-3274.60;89.60;;;;;;4950311;29;20043;-65
2022/12/18 01:25:40;;;;;;;0.30;0.30;;;-3274.60;89.60;;;;;;4950567;28;20047;-64
2022/12/18 01:28:05;;;;;;;0.08;0.08;;;-3274.70;89.70;;;;;;4950226;29;20058;-64
2022/12/18 01:30:31;;;;;;;0.10;0.10;;;-3274.70;89.80;;;;;;4947573;29;20776;-65
2022/12/18 01:32:57;;;;;;;0.75;0.75;;;-3274.70;89.60;;;;;;4948686;29;20082;-65
2022/12/18 01:35:23;;;;;;;0.10;0.10;;;-3274.70;89.60;;;;;;4950013;28;20251;-64
2022/12/18 01:37:48;;;;;;;0.05;0.05;;;-3274.70;89.50;;;;;;4950602;28;20945;-65
2022/12/18 01:40:14;;;;;;;0.20;0.20;;;-3274.70;89.60;;;;;;4952757;29;20055;-65
2022/12/18 01:42:39;;;;;;;1.65;1.55;;;-3274.70;89.60;;;;;;4936891;29;20073;-65
2022/12/18 01:45:11;;;;;;;0.22;0.22;;;-3274.70;89.50;;;;;;4953977;29;20074;-65
2022/12/18 01:47:47;;;;;;;0.10;0.10;;;-3274.70;89.50;;;;;;4954417;29;20039;-66
2022/12/18 01:50:22;;;;;;;0.05;0.05;;;-3274.70;89.60;;;;;;4952952;28;20163;-65
2022/12/18 01:52:59;;;;;;;0.63;0.63;;;-3274.80;89.60;;;;;;4954037;28;20043;-65
2022/12/18 01:55:29;;;;;;;0.20;0.20;;;-3274.70;89.30;;;;;;4953638;28;20047;-65
2022/12/18 01:57:58;;;;;;;0.10;0.10;;;-3274.70;89.50;;;;;;4953613;28;20067;-65
2022/12/18 02:00:24;;;;;;;0.20;0.20;;;-3274.80;89.40;;;;;;4951962;29;20051;-65
2022/12/18 02:02:50;;;;;;;0.57;0.57;;;-3274.80;89.30;;;;;;4953329;29;20053;-66
2022/12/18 02:05:29;;;;;;;0.50;0.50;;;-3274.80;89.30;;;;;;4952939;28;20455;-65
2022/12/18 02:08:08;;;;;;;0.85;0.57;;;-3274.80;89.20;;;;;;4953603;28;20075;-65
2022/12/18 02:10:53;;;;;;;2.00;1.15;;;-3274.80;89.30;;;;;;4952900;28;20043;-64
2022/12/18 02:13:40;;;;;;;0.47;0.47;;;-3274.80;89.10;;;;;;4953455;28;20393;-65
2022/12/18 02:16:20;;;;;;;0.10;0.10;;;-3274.80;89.10;;;;;;4952889;28;20050;-65
2022/12/18 02:18:50;;;;;;;0.30;0.30;;;-3274.70;89.00;;;;;;4952208;29;20050;-65
2022/12/18 02:21:45;;;;;;;0.20;0.20;;;-3274.70;89.10;;;;;;4952990;29;20570;-65
2022/12/18 02:24:23;;;;;;;0.20;0.20;;;-3274.70;88.90;;;;;;4951631;28;20047;-66
2022/12/18 02:26:53;;;;;;;1.58;1.48;;;-3274.70;89.00;;;;;;4952481;29;20058;-65
2022/12/18 02:29:40;;;;;;;0.10;0.10;;;-3274.70;88.90;;;;;;4942607;29;20055;-65
2022/12/18 02:32:11;;;;;;;0.10;0.10;;;-3274.70;88.80;;;;;;4952212;28;20451;-65
2022/12/18 02:34:39;;;;;;;0.10;0.10;;;-3274.70;88.70;;;;;;4948884;29;20118;-65
2022/12/18 02:37:08;;;;;;;0.20;0.20;;;-3274.70;88.60;;;;;;4951940;29;20055;-65
2022/12/18 02:39:37;;;;;;;1.85;1.08;;;-3274.60;88.40;;;;;;4952841;29;20094;-66
2022/12/18 02:42:07;;;;;;;0.15;0.15;;;-3274.60;88.50;;;;;;4952663;28;20130;-65
2022/12/18 02:44:34;;;;;;;0.10;0.10;;;-3274.50;88.30;;;;;;4952145;28;20101;-65
2022/12/18 02:46:59;;;;;;;0.10;0.10;;;-3274.50;88.30;;;;;;4952906;29;20053;-65
2022/12/18 02:50:10;;;;;;;0.57;0.57;;;-3274.50;88.40;;;;;;4950405;28;20484;-65
2022/12/18 02:52:36;;;;;;;0.30;0.30;;;-3274.40;88.30;;;;;;4911540;29;20039;-65
2022/12/18 02:55:13;;;;;;;0.10;0.10;;;-3274.40;87.90;;;;;;4943891;28;20110;-66
2022/12/18 02:58:04;;;;;;;0.10;0.10;;;-3274.40;88.30;;;;;;4952630;29;20043;-64
2022/12/18 03:00:42;;;;;;;0.10;0.10;;;-3274.30;88.10;;;;;;4951685;29;20063;-66
2022/12/18 03:03:17;;;;;;;0.10;0.10;;;-3274.30;88.20;;;;;;4952521;29;20047;-65
2022/12/18 03:05:53;;;;;;;0.75;0.75;;;-3274.30;88.10;;;;;;4951826;29;20385;-65
2022/12/18 03:08:31;;;;;;;0.35;0.35;;;-3274.30;88.20;;;;;;4951995;28;20047;-65
2022/12/18 03:11:12;;;;;;;0.80;0.80;;;-3274.30;88.20;;;;;;4951190;29;20047;-65
2022/12/18 03:13:48;;;;;;;0.30;0.30;;;-3274.20;88.20;;;;;;4951839;29;20507;-65
2022/12/18 03:16:24;;;;;;;0.43;0.43;;;-3274.30;88.10;;;;;;4951954;28;20046;-65
2022/12/18 03:18:57;;;;;;;1.77;1.67;;;-3274.30;88.10;;;;;;4951873;29;20042;-65
2022/12/18 03:21:29;;;;;;;0.70;0.70;;;-3274.30;88.00;;;;;;4951982;29;20074;-65
2022/12/18 03:23:56;;;;;;;0.10;0.10;;;-3274.20;87.80;;;;;;4951874;28;20552;-65
2022/12/18 03:26:26;;;;;;;0.10;0.10;;;-3274.30;88.00;;;;;;4950743;29;20408;-65
2022/12/18 03:28:58;;;;;;;0.43;0.43;;;-3274.30;87.90;;;;;;4951088;28;20066;-65
2022/12/18 03:31:26;;;;;;;0.17;0.17;;;-3274.30;88.00;;;;;;4950037;29;20046;-65
2022/12/18 03:34:01;;;;;;;0.10;0.10;;;-3274.30;88.10;;;;;;4951678;28;20418;-65
2022/12/18 03:36:27;;;;;;;0.57;0.57;;;-3274.30;87.80;;;;;;4951524;29;20230;-65
2022/12/18 03:38:53;;;;;;;0.10;0.10;;;-3274.30;87.80;;;;;;4950571;28;20384;-64
2022/12/18 03:41:33;;;;;;;0.10;0.10;;;-3274.30;87.90;;;;;;4950760;28;20043;-65
2022/12/18 03:44:27;;;;;;;0.10;0.10;;;-3274.40;87.90;;;;;;4932677;29;20055;-66
2022/12/18 03:47:09;;;;;;;0.17;0.17;;;-3274.30;87.90;;;;;;4951477;29;20482;-65
2022/12/18 03:49:47;;;;;;;0.10;0.10;;;-3274.30;87.60;;;;;;4950717;29;20051;-65
2022/12/18 03:52:28;;;;;;;0.00;0.00;;;-3274.30;87.50;;;;;;4950520;29;20836;-65
2022/12/18 03:54:55;;;;;;;0.10;0.10;;;-3274.20;87.40;;;;;;4950770;28;20102;-66
2022/12/18 03:57:25;;;;;;;1.17;1.17;;;-3274.20;87.50;;;;;;4951155;28;20122;-65
2022/12/18 03:59:56;;;;;;;0.05;0.05;;;-3274.20;87.50;;;;;;4951780;29;20055;-65
2022/12/18 04:02:24;;;;;;;0.10;0.10;;;-3274.30;87.40;;;;;;4950509;28;20138;-66
2022/12/18 04:04:53;;;;;;;0.35;0.35;;;-3274.20;87.20;;;;;;4951462;29;20077;-65
2022/12/18 04:07:20;;;;;;;0.10;0.10;;;-3274.10;87.20;;;;;;4951355;29;20040;-66
2022/12/18 04:09:48;;;;;;;0.00;0.00;;;-3274.20;87.20;;;;;;4950716;29;20039;-65
2022/12/18 04:12:14;;;;;;;0.10;0.10;;;-3274.10;87.10;;;;;;4950745;29;20047;-65
2022/12/18 04:14:39;;;;;;;0.00;0.00;;;-3274.10;87.00;;;;;;4950929;29;20455;-65
2022/12/18 04:17:05;;;;;;;0.10;0.10;;;-3274.10;86.90;;;;;;4951654;29;20043;-64
2022/12/18 04:19:31;;;;;;;0.00;0.00;;;-3274.10;86.90;;;;;;4949912;29;20055;-65
2022/12/18 04:21:56;;;;;;;0.10;0.10;;;-3274.10;86.90;;;;;;4950732;29;20154;-65
2022/12/18 04:24:22;;;;;;;0.00;0.00;;;-3274.10;86.80;;;;;;4950852;28;20046;-64
2022/12/18 04:26:47;;;;;;;0.00;0.00;;;-3274.10;86.70;;;;;;4950824;29;20043;-65
2022/12/18 04:29:13;;;;;;;0.15;0.15;;;-3274.10;86.60;;;;;;4949433;28;20039;-66
2022/12/18 04:31:39;;;;;;;0.20;0.20;;;-3274.10;86.60;;;;;;4950845;28;20579;-65
2022/12/18 04:34:04;;;;;;;0.28;0.28;;;-3274.10;86.40;;;;;;4950927;28;20122;-66
2022/12/18 04:36:30;;;;;;;0.40;0.40;;;-3274.10;86.40;;;;;;4949267;29;20051;-65
2022/12/18 04:38:55;;;;;;;0.10;0.10;;;-3274.10;86.50;;;;;;4950821;29;20051;-66
2022/12/18 04:41:21;;;;;;;0.10;0.10;;;-3274.10;86.50;;;;;;4950661;28;20475;-66
2022/12/18 04:43:47;;;;;;;0.10;0.10;;;-3274.10;86.30;;;;;;4949432;29;20047;-66
2022/12/18 04:46:13;;;;;;;0.10;0.10;;;-3274.00;86.30;;;;;;4950146;29;20098;-65
2022/12/18 04:48:38;;;;;;;0.10;0.10;;;-3273.90;86.10;;;;;;4950423;29;20126;-65
2022/12/18 04:51:05;;;;;;;0.10;0.10;;;-3274.00;86.10;;;;;;4950917;29;20051;-65
2022/12/18 04:53:31;;;;;;;0.10;0.10;;;-3273.90;85.90;;;;;;4949275;29;20043;-65
2022/12/18 04:56:11;;;;;;;0.10;0.10;;;-3273.90;85.80;;;;;;4950636;29;20041;-65
2022/12/18 04:58:39;;;;;;;0.10;0.10;;;-3274.00;85.80;;;;;;4949496;29;20488;-66
2022/12/18 05:01:04;;;;;;;0.10;0.10;;;-3273.90;85.70;;;;;;4949805;28;20047;-65
2022/12/18 05:03:30;;;;;;;0.10;0.10;;;-3273.90;85.70;;;;;;4950725;29;20046;-66
2022/12/18 05:05:56;;;;;;;0.10;0.10;;;-3273.90;85.60;;;;;;4953312;28;20054;-66
2022/12/18 05:08:22;;;;;;;0.20;0.20;;;-3273.90;85.50;;;;;;4949132;29;20047;-65
2022/12/18 05:10:47;;;;;;;0.08;0.08;;;-3273.90;85.60;;;;;;4950247;28;20043;-65
2022/12/18 05:13:13;;;;;;;0.10;0.10;;;-3273.90;85.60;;;;;;4949558;28;20071;-65
2022/12/18 05:15:39;;;;;;;0.98;0.98;;;-3273.90;85.40;;;;;;4953928;29;20130;-65
2022/12/18 05:18:04;;;;;;;0.10;0.10;;;-3273.90;85.40;;;;;;4953100;29;20157;-65
2022/12/18 05:20:30;;;;;;;0.10;0.10;;;-3273.80;85.30;;;;;;4953690;29;20101;-65
2022/12/18 05:22:56;;;;;;;0.13;0.13;;;-3273.80;85.30;;;;;;4954421;29;20058;-66
2022/12/18 05:25:23;;;;;;;0.10;0.10;;;-3273.70;85.20;;;;;;4954059;28;20035;-64
2022/12/18 05:27:48;;;;;;;0.10;0.10;;;-3273.70;85.20;;;;;;4953196;29;20094;-66
2022/12/18 05:30:15;;;;;;;0.00;0.00;;;-3273.80;85.20;;;;;;4952859;29;20055;-65
2022/12/18 05:32:41;;;;;;;0.10;0.10;;;-3273.80;85.20;;;;;;4953889;28;20142;-65
2022/12/18 05:35:09;;;;;;;0.00;0.00;;;-3273.80;85.00;;;;;;4953350;29;20130;-65
2022/12/18 05:37:34;;;;;;;2.08;1.98;;;-3273.80;84.90;;;;;;4953431;28;20039;-65
2022/12/18 05:40:00;;;;;;;0.10;0.10;;;-3273.70;84.80;;;;;;4953943;28;20503;-66
2022/12/18 05:42:26;;;;;;;0.68;0.68;;;-3273.80;84.90;;;;;;4952378;29;20134;-65
2022/12/18 05:44:51;;;;;;;0.80;0.80;;;-3273.70;84.80;;;;;;4952676;29;20039;-65
2022/12/18 05:47:17;;;;;;;0.10;0.10;;;-3273.70;84.80;;;;;;4953869;29;20409;-66
2022/12/18 05:49:43;;;;;;;0.00;0.00;;;-3273.70;84.80;;;;;;4954791;29;20093;-66
2022/12/18 05:52:08;;;;;;;0.10;0.10;;;-3273.70;84.90;;;;;;4953083;29;20120;-65
2022/12/18 05:54:34;;;;;;;0.10;0.10;;;-3273.80;84.90;;;;;;4952813;29;20047;-65
2022/12/18 05:57:00;;;;;;;0.10;0.10;;;-3273.80;84.80;;;;;;4952278;29;20559;-66
2022/12/18 05:59:26;;;;;;;0.10;0.10;;;-3273.80;84.70;;;;;;4950454;28;20043;-65
2022/12/18 06:01:51;;;;;;;0.52;0.52;;;-3273.70;84.70;;;;;;4952711;28;20082;-70
2022/12/18 06:04:17;;;;;;;0.00;0.00;;;-3273.70;84.40;;;;;;4949118;28;20047;-65
2022/12/18 06:06:42;;;;;;;0.50;0.50;;;-3273.70;84.50;;;;;;4935770;29;20547;-65
2022/12/18 06:09:09;;;;;;;0.10;0.10;;;-3273.70;84.50;;;;;;4952394;28;20059;-65
2022/12/18 06:11:38;;;;;;;0.10;0.10;;;-3273.70;84.50;;;;;;4950209;29;20074;-66
2022/12/18 06:14:05;;;;;;;0.10;0.10;;;-3273.70;84.50;;;;;;4953109;28;20418;-67
2022/12/18 06:16:32;;;;;;;0.10;0.10;;;-3273.70;84.50;;;;;;4952014;29;20042;-66
2022/12/18 06:19:03;;;;;;;0.10;0.10;;;-3273.70;84.50;;;;;;4952745;28;20062;-65
2022/12/18 06:21:30;;;;;;;0.00;0.00;;;-3273.70;84.50;;;;;;4951810;29;20058;-65
2022/12/18 06:23:56;;;;;;;0.10;0.10;;;-3273.70;84.50;;;;;;4950601;28;20055;-66
2022/12/18 06:26:21;;;;;;;0.10;0.10;;;-3273.70;84.50;;;;;;4951371;28;20389;-66
2022/12/18 06:28:47;;;;;;;0.45;0.45;;;-3273.70;84.50;;;;;;4951782;28;20058;-66
2022/12/18 06:31:13;;;;;;;0.10;0.10;;;-3273.60;84.40;;;;;;4951360;29;20772;-67
2022/12/18 06:33:39;;;;;;;0.10;0.10;;;-3273.60;84.30;;;;;;4952486;28;20066;-67
2022/12/18 06:36:13;;;;;;;0.10;0.10;;;-3273.60;84.20;;;;;;4951988;28;20505;-66
2022/12/18 06:38:41;;;;;;;2.08;1.63;;;-3273.60;84.10;;;;;;4952016;28;20086;-67
2022/12/18 06:41:15;;;;;;;1.25;1.23;;;-3273.60;84.20;;;;;;4951718;29;20102;-67
2022/12/18 06:43:42;;;;;;;0.30;0.30;;;-3273.50;84.10;;;;;;4952459;28;20489;-67
2022/12/18 06:46:08;;;;;;;0.75;0.75;;;-3273.50;84.00;;;;;;4951814;29;20047;-66
2022/12/18 06:48:34;;;;;;;0.10;0.10;;;-3273.40;83.80;;;;;;4948138;28;20394;-66
2022/12/18 06:51:00;;;;;;;6.30;3.72;;;-3273.40;83.70;;;;;;4950544;29;20050;-66
2022/12/18 06:53:25;;;;;;;0.10;0.10;;;-3273.30;83.60;;;;;;4951627;28;20142;-66
2022/12/18 06:55:51;;;;;;;0.30;0.30;;;-3273.30;83.40;;;;;;4950971;29;20142;-65
2022/12/18 06:58:17;;;;;;;0.10;0.10;;;-3273.20;83.20;;;;;;4951461;28;20448;-66
2022/12/18 07:00:43;;;;;;;0.10;0.10;;;-3273.20;83.20;;;;;;4949800;29;20062;-66
2022/12/18 07:03:08;;;;;;;0.10;0.10;;;-3273.20;83.10;;;;;;4952077;28;20047;-66
2022/12/18 07:05:38;;;;;;;0.10;0.10;;;-3273.10;83.10;;;;;;4951571;28;20049;-67
2022/12/18 07:08:04;;;;;;;0.10;0.10;;;-3273.20;83.10;;;;;;4951764;28;20051;-66
2022/12/18 07:10:30;;;;;;;0.10;0.10;;;-3273.10;83.00;;;;;;4951851;29;20053;-65
2022/12/18 07:12:56;;;;;;;0.35;0.35;;;-3273.10;83.10;;;;;;4952127;29;20050;-66
2022/12/18 07:15:21;;;;;;;0.20;0.20;;;-3273.10;83.10;;;;;;4949845;29;20066;-66
2022/12/18 07:17:47;;;;;;;0.10;0.10;;;-3273.10;83.20;;;;;;4951427;29;20512;-66
2022/12/18 07:20:12;;;;;;;0.00;0.00;;;-3273.10;83.20;;;;;;4950500;29;20058;-67
2022/12/18 07:22:38;;;;;;;0.10;0.10;;;-3273.10;83.20;;;;;;4949909;29;20051;-65
2022/12/18 07:25:04;;;;;;;0.10;0.10;;;-3273.00;83.30;;;;;;4950292;28;20162;-64
2022/12/18 07:27:30;;;;;;;0.00;0.00;;;-3273.00;83.40;;;;;;4949371;29;20433;-64
2022/12/18 07:29:55;;;;;;;1.38;0.80;;;-3273.00;83.40;;;;;;4948909;28;20082;-65
2022/12/18 07:32:21;;;;;;;0.10;0.10;;;-3273.00;83.50;;;;;;4950558;29;20043;-66
2022/12/18 07:34:47;;;;;;;0.13;0.13;;;-3273.00;83.60;;;;;;4951627;28;20055;-65
2022/12/18 07:37:12;;;;;;;0.40;0.40;;;-3273.00;83.50;;;;;;4949480;28;20451;-65
2022/12/18 07:39:38;;;;;;;0.10;0.10;;;-3273.00;83.60;;;;;;4951238;29;20057;-65
2022/12/18 07:44:48;;;;;;;0.10;0.10;;;-3273.00;83.80;;;;;;4950308;29;20759;-65
2022/12/18 07:47:14;;;;;;;0.15;0.15;;;-3273.10;83.70;;;;;;4951857;29;20055;-65
2022/12/18 07:49:39;;;;;;;1.17;1.10;;;-3273.10;83.80;;;;;;4950581;29;20043;-65
2022/12/18 07:52:05;;;;;;;0.82;0.75;;;-3273.10;83.60;;;;;;4950502;29;20047;-65
2022/12/18 07:54:30;;;;;;;0.32;0.32;;;-3273.10;83.60;;;;;;4950723;29;20031;-64
2022/12/18 07:56:56;;;;;;;0.38;0.38;;;-3273.10;83.50;;;;;;4951536;29;20047;-64
2022/12/18 07:59:21;;;;;;;0.10;0.10;;;-3273.10;83.50;;;;;;4933116;29;20047;-65
2022/12/18 08:01:47;;;;;;;0.10;0.10;;;-3273.20;83.60;;;;;;4950623;29;20039;-65
2022/12/18 08:04:13;;;;;;;0.10;0.10;;;-3273.20;83.60;;;;;;4950802;29;20039;-65
2022/12/18 08:06:38;;;;;;;0.57;0.57;;;-3273.20;83.70;;;;;;4943344;29;20047;-65
2022/12/18 08:09:04;;;;;;;0.10;0.10;;;-3273.30;83.70;;;;;;4951084;28;20408;-64
2022/12/18 08:11:29;;;;;;;0.10;0.10;;;-3273.30;83.70;;;;;;4951205;29;20097;-65
2022/12/18 08:13:55;;;;;;;0.10;0.10;;;-3273.30;83.80;;;;;;4951321;29;20074;-65
2022/12/18 08:16:22;;;;;;;1.65;1.45;;;-3273.30;83.80;;;;;;4946814;29;20055;-65
2022/12/18 08:18:48;;;;;;;0.10;0.10;;;-3273.30;83.90;;;;;;4949394;28;20408;-65
2022/12/18 08:21:16;;;;;;;0.08;0.08;;;-3273.30;84.00;;;;;;4950014;29;20047;-65
2022/12/18 08:23:42;;;;;;;0.10;0.10;;;-3273.40;84.10;;;;;;4950509;29;20407;-65
2022/12/18 08:26:08;;;;;;;1.52;0.80;;;-3273.40;84.10;;;;;;4951678;28;20077;-65
2022/12/18 08:28:34;;;;;;;0.10;0.10;;;-3273.40;84.00;;;;;;4950589;28;20460;-64
2022/12/18 08:31:00;;;;;;;0.00;0.00;;;-3273.40;84.10;;;;;;4947492;29;20531;-66
2022/12/18 08:33:26;;;;;;;0.22;0.22;;;-3273.50;84.30;;;;;;4950324;29;20075;-68
2022/12/18 08:35:52;;;;;;;0.95;0.95;;;-3273.50;84.30;;;;;;4948596;28;20042;-68
2022/12/18 08:38:17;;;;;;;0.00;0.00;;;-3273.40;84.10;;;;;;4949903;29;20039;-66
2022/12/18 08:40:43;;;;;;;0.05;0.05;;;-3273.40;84.20;;;;;;4929206;29;20039;-64
2022/12/18 08:45:55;;;;;;;0.10;0.10;;;-3273.50;84.30;;;;;;4944851;29;20047;-64
2022/12/18 08:48:21;;;;;;;0.63;0.52;;;-3273.60;84.40;;;;;;4950605;28;20043;-65
2022/12/18 08:50:56;;;;;;;0.13;0.13;;;-3273.60;84.50;;;;;;4954464;29;20043;-64
2022/12/18 08:53:26;;;;;;;0.05;0.05;;;-3273.60;84.50;;;;;;4948259;28;20054;-63
2022/12/18 08:55:52;;;;;;;0.10;0.10;;;-3273.70;84.60;;;;;;4957915;28;20055;-63
2022/12/18 08:58:19;;;;;;;0.08;0.08;;;-3273.80;84.70;;;;;;4944943;29;20508;-64
2022/12/18 09:00:44;;;;;;;1.35;1.30;;;-3273.80;84.70;;;;;;4955338;28;20121;-64
2022/12/18 09:03:15;;;;;;;0.00;0.00;;;-3273.80;84.80;;;;;;4961219;28;20496;-65
2022/12/18 09:05:41;;;;;;;0.10;0.10;;;-3273.90;84.90;;;;;;4952389;28;20074;-65
2022/12/18 09:08:06;;;;;;;0.10;0.10;;;-3274.00;85.00;;;;;;4954714;28;20055;-67
2022/12/18 09:10:32;;;;;;;0.52;0.40;;;-3274.00;85.10;;;;;;4953328;29;20080;-64
2022/12/18 09:12:58;;;;;;;0.32;0.32;;;-3274.20;85.30;;;;;;4953765;28;20098;-64
2022/12/18 09:15:24;;;;;;;0.10;0.10;;;-3274.30;85.50;;;;;;4952864;28;20129;-64
2022/12/18 09:17:49;;;;;;;0.00;0.00;;;-3274.50;85.60;;;;;;4952367;28;20055;-63
2022/12/18 09:20:16;;;;;;;0.10;0.10;;;-3274.60;85.60;;;;;;4947077;29;20035;-64
2022/12/18 09:22:42;;;;;;;0.10;0.10;;;-3274.60;85.50;;;;;;4946681;28;20047;-65
2022/12/18 09:25:08;;;;;;;0.08;0.08;;;-3274.70;85.50;;;;;;4934324;29;20386;-65
2022/12/18 09:27:34;;;;;;;0.10;0.10;;;-3274.70;85.40;;;;;;4944072;28;20187;-65
2022/12/18 09:30:00;;;;;;;2.15;1.95;;;-3274.80;85.40;;;;;;4951915;29;20047;-64
2022/12/18 09:32:25;;;;;;;0.45;0.45;;;-3274.80;85.10;;;;;;4953393;28;20047;-65
2022/12/18 09:34:51;;;;;;;0.10;0.10;;;-3274.80;85.10;;;;;;4953205;29;20499;-64
2022/12/18 09:37:17;;;;;;;0.00;0.00;;;-3274.90;85.10;;;;;;4953093;29;20130;-64
2022/12/18 09:39:42;;;;;;;0.20;0.20;;;-3275.00;85.20;;;;;;4953144;28;20062;-64
2022/12/18 09:42:21;;;;;;;0.10;0.10;;;-3275.00;85.30;;;;;;4953461;29;20059;-64
2022/12/18 09:44:53;;;;;;;0.10;0.10;;;-3275.10;85.30;;;;;;4951596;28;20168;-64
2022/12/18 09:47:35;;;;;;;0.10;0.10;;;-3275.20;85.40;;;;;;4953551;29;20134;-64
2022/12/18 09:50:05;;;;;;;2.05;1.95;;;-3275.20;85.50;;;;;;4952825;28;20593;-64
2022/12/18 09:52:39;;;;;;;0.10;0.10;;;-3275.40;85.50;;;;;;4935810;28;20058;-65
2022/12/18 09:55:24;;;;;;;0.10;0.10;;;-3275.40;85.40;;;;;;4953090;28;20051;-63
2022/12/18 09:57:54;;;;;;;0.10;0.10;;;-3276.00;87.50;;;;;;4952282;29;20055;-64
2022/12/18 10:00:22;;;;;;;0.10;0.10;;;-3276.10;86.20;;;;;;4952512;28;20085;-64
2022/12/18 10:02:51;;;;;;;0.20;0.20;;;-3276.10;86.10;;;;;;4952191;29;20078;-63
2022/12/18 10:05:28;;;;;;;0.10;0.10;;;-3275.90;85.40;;;;;;4953093;29;20043;-64
2022/12/18 10:08:05;;;;;;;0.10;0.10;;;-3275.90;85.40;;;;;;4953463;28;20051;-63
2022/12/18 10:10:47;;;;;;;0.10;0.10;;;-3275.80;84.50;;;;;;4952874;29;20051;-64
2022/12/18 10:13:23;;;;;;;0.10;0.10;;;-3275.80;84.30;;;;;;4952021;29;20078;-64
2022/12/18 10:16:02;;;;;;;0.50;0.50;;;-3275.70;84.00;;;;;;4936692;29;20051;-64
2022/12/18 10:18:49;;;;;;;0.00;0.00;;;-3275.70;84.10;;;;;;4951700;29;20051;-63
2022/12/18 10:21:25;;;;;;;0.10;0.10;;;-3275.70;84.40;;;;;;4935703;29;20104;-63
2022/12/18 10:23:56;;;;;;;0.90;0.90;;;-3275.80;84.50;;;;;;4953626;28;20047;-64
2022/12/18 10:26:23;;;;;;;0.10;0.10;;;-3275.80;84.30;;;;;;4951122;29;20637;-63
2022/12/18 10:28:50;;;;;;;0.17;0.17;;;-3275.80;84.60;;;;;;4950500;28;20116;-67
2022/12/18 10:31:19;;;;;;;0.10;0.10;;;-3275.90;84.60;;;;;;4949423;28;20051;-67
2022/12/18 10:33:45;;;;;;;0.10;0.10;;;-3275.90;84.30;;;;;;4953018;29;20511;-66
2022/12/18 10:36:10;;;;;;;2.53;2.08;;;-3275.90;84.00;;;;;;4940094;29;20154;-65
2022/12/18 10:38:36;;;;;;;0.10;0.10;;;-3275.80;83.60;;;;;;4949184;29;20043;-64
2022/12/18 10:41:18;;;;;;;0.00;0.00;;;-3275.80;83.70;;;;;;4949906;29;20575;-64
2022/12/18 10:43:44;;;;;;;0.10;0.10;;;-3275.90;83.80;;;;;;4950939;29;20256;-65
2022/12/18 10:46:10;;;;;;;0.10;0.10;;;-3276.00;83.90;;;;;;4951190;29;20164;-65
2022/12/18 10:48:50;;;;;;;0.10;0.10;;;-3276.00;83.80;;;;;;4949405;28;20078;-65
2022/12/18 10:51:27;;;;;;;0.10;0.10;;;-3276.10;83.90;;;;;;4942198;29;20090;-65
2022/12/18 10:54:06;;;;;;;0.90;0.90;;;-3276.10;83.90;;;;;;4946542;29;20078;-64
2022/12/18 10:56:34;;;;;;;0.10;0.10;;;-3276.30;84.10;;;;;;4947217;29;20064;-64
2022/12/18 10:59:08;;;;;;;0.10;0.10;;;-3276.30;84.20;;;;;;4950980;29;20039;-63
2022/12/18 11:01:56;;;;;;;0.20;0.20;;;-3276.30;83.80;;;;;;4943425;28;20126;-63
2022/12/18 11:04:30;;;;;;;0.65;0.65;;;-3276.40;83.90;;;;;;4950274;29;20587;-64
2022/12/18 11:06:59;;;;;;;0.63;0.63;;;-3276.50;84.10;;;;;;4948742;29;20050;-64
2022/12/18 11:09:33;;;;;;;0.10;0.10;;;-3276.60;83.60;;;;;;4950554;29;20040;-64
2022/12/18 11:12:06;;;;;;;0.00;0.00;;;-3276.60;83.70;;;;;;4948287;28;20054;-64
2022/12/18 11:14:53;;;;;;;0.25;0.25;;;-3276.60;83.50;;;;;;4951508;28;20444;-65
2022/12/18 11:17:30;;;;;;;0.10;0.10;;;-3276.50;82.80;;;;;;4946838;29;20047;-65
2022/12/18 11:20:17;;;;;;;0.10;0.10;;;-3276.50;82.60;;;;;;4950078;29;20049;-64
2022/12/18 11:22:53;;;;;;;1.20;1.17;;;-3276.50;82.60;;;;;;4926408;29;20198;-65
2022/12/18 11:25:19;;;;;;;0.08;0.08;;;-3276.60;82.90;;;;;;4951520;28;20141;-63
2022/12/18 11:27:51;;;;;;;0.20;0.20;;;0.00;83.70;;;;;;4950185;29;20054;-63
2022/12/18 11:30:19;;;;;;;0.28;0.28;;;0.00;83.50;;;;;;4947350;29;20063;-63
2022/12/18 11:32:49;;;;;;;0.08;0.08;;;0.00;83.30;;;;;;4936670;29;20044;-63
2022/12/18 11:35:24;;;;;;;0.20;0.20;;;0.10;83.60;;;;;;4941483;29;20047;-64
2022/12/18 11:37:57;;;;;;;0.00;0.00;;;0.10;83.50;;;;;;4946904;29;20046;-63
2022/12/18 11:40:35;;;;;;;0.03;0.03;;;0.20;84.30;;;;;;4949646;28;20047;-64
2022/12/18 11:43:10;;;;;;;0.10;0.10;;;0.30;84.30;;;;;;4946987;29;20528;-63
2022/12/18 11:45:45;;;;;;;0.00;0.00;;;0.30;83.80;;;;;;4949255;28;20138;-63
2022/12/18 11:48:22;;;;;;;0.00;0.00;;;0.20;83.10;;;;;;4950409;29;20051;-63
2022/12/18 11:50:48;;;;;;;0.20;0.20;;;0.30;83.70;;;;;;4944123;29;20055;-63
2022/12/18 11:53:13;;;;;;;0.10;0.10;;;0.90;84.60;;;;;;4944942;29;20311;-64
2022/12/18 11:55:50;;;;;;;0.20;0.20;;;0.80;82.50;;;;;;4946836;29;20133;-64
2022/12/18 11:58:31;;;;;;;0.10;0.10;;;0.70;82.10;;;;;;4946901;29;20043;-64
2022/12/18 12:01:32;;;;;;;0.10;0.10;;;0.80;82.70;;;;;;4945974;28;20583;-63
2022/12/18 12:04:00;;;;;;;0.10;0.10;;;0.90;83.10;;;;;;4947523;29;20579;-63
2022/12/18 12:06:54;;;;;;;0.00;0.00;;;0.90;83.10;;;;;;4945558;29;20101;-64
2022/12/18 12:09:53;;;;;;;0.10;0.10;;;0.90;83.60;;;;;;4942081;28;20043;-63
2022/12/18 12:12:45;;;;;;;0.10;0.10;;;1.00;83.90;;;;;;4950233;28;20051;-64
2022/12/18 12:15:22;;;;;;;0.10;0.10;;;0.90;83.20;;;;;;4941134;29;20174;-62
2022/12/18 12:18:26;;;;;;;0.10;0.10;;;0.60;82.30;;;;;;4941140;29;20049;-64
2022/12/18 12:21:02;;;;;;;0.10;0.10;;;0.50;81.40;;;;;;4905771;29;20047;-63
2022/12/18 12:23:50;;;;;;;0.25;0.25;;;0.40;81.10;;;;;;4904470;29;20052;-62
2022/12/18 12:26:30;;;;;;;0.00;0.00;;;0.20;80.70;;;;;;4936180;28;20117;-64
2022/12/18 12:29:24;;;;;;;0.25;0.25;;;0.20;81.20;;;;;;4946746;29;20035;-64
2022/12/18 12:31:52;;;;;;;0.10;0.10;;;0.40;82.10;;;;;;4911509;29;20054;-65
2022/12/18 12:34:42;;;;;;;0.00;0.00;;;0.30;81.40;;;;;;4913156;29;20100;-64
2022/12/18 12:37:11;;;;;;;0.10;0.10;;;0.30;81.40;;;;;;4912565;29;20044;-65
2022/12/18 12:39:39;;;;;;;0.25;0.25;;;0.20;81.40;;;;;;4912203;29;20138;-64
2022/12/18 12:45:20;;;;;;;0.10;0.10;;;0.20;81.30;;;;;;4913283;29;20048;-65
2022/12/18 12:47:48;;;;;;;0.00;0.00;;;0.10;81.40;;;;;;4912814;29;20083;-65